sensor_id;sensor_type;location;lat;lon;timestamp;pressure;altitude;pressure_sealevel;temperature
66372;BMP180;53168;51.146;17.120;2023-07-31T00:01:37;99855.40;;;17.30
66372;BMP180;53168;51.146;17.120;2023-07-31T00:04:11;99854.00;;;17.40
66372;BMP180;53168;51.146;17.120;2023-07-31T00:06:45;99858.00;;;17.40
66372;BMP180;53168;51.146;17.120;2023-07-31T00:09:21;99858.00;;;17.40
66372;BMP180;53168;51.146;17.120;2023-07-31T00:11:54;99859.20;;;17.40
66372;BMP180;53168;51.146;17.120;2023-07-31T00:14:28;99857.40;;;17.40
66372;BMP180;53168;51.146;17.120;2023-07-31T00:42:43;99850.20;;;17.38
66372;BMP180;53168;51.146;17.120;2023-07-31T00:45:19;99853.60;;;17.40
66372;BMP180;53168;51.146;17.120;2023-07-31T00:47:56;99861.80;;;17.40
66372;BMP180;53168;51.146;17.120;2023-07-31T00:50:31;99862.00;;;17.30
66372;BMP180;53168;51.146;17.120;2023-07-31T00:53:06;99863.20;;;17.20
66372;BMP180;53168;51.146;17.120;2023-07-31T00:55:40;99868.60;;;17.20
66372;BMP180;53168;51.146;17.120;2023-07-31T00:58:15;99866.60;;;17.20
66372;BMP180;53168;51.146;17.120;2023-07-31T01:00:48;99867.00;;;17.18
66372;BMP180;53168;51.146;17.120;2023-07-31T01:03:23;99855.80;;;17.10
66372;BMP180;53168;51.146;17.120;2023-07-31T01:06:17;99858.20;;;17.10
66372;BMP180;53168;51.146;17.120;2023-07-31T01:09:02;99858.20;;;17.10
66372;BMP180;53168;51.146;17.120;2023-07-31T01:11:46;99857.60;;;17.10
66372;BMP180;53168;51.146;17.120;2023-07-31T01:14:20;99855.20;;;17.10
66372;BMP180;53168;51.146;17.120;2023-07-31T01:16:54;99858.40;;;17.00
66372;BMP180;53168;51.146;17.120;2023-07-31T01:19:29;99853.00;;;17.00
66372;BMP180;53168;51.146;17.120;2023-07-31T01:22:28;99853.00;;;17.00
66372;BMP180;53168;51.146;17.120;2023-07-31T01:25:30;99852.00;;;17.00
66372;BMP180;53168;51.146;17.120;2023-07-31T01:28:23;99857.40;;;17.00
66372;BMP180;53168;51.146;17.120;2023-07-31T01:31:03;99854.80;;;17.00
66372;BMP180;53168;51.146;17.120;2023-07-31T01:33:41;99852.20;;;17.00
66372;BMP180;53168;51.146;17.120;2023-07-31T01:36:16;99858.60;;;17.00
66372;BMP180;53168;51.146;17.120;2023-07-31T01:38:50;99860.20;;;17.00
66372;BMP180;53168;51.146;17.120;2023-07-31T01:41:24;99859.80;;;16.90
66372;BMP180;53168;51.146;17.120;2023-07-31T01:43:58;99859.40;;;16.90
66372;BMP180;53168;51.146;17.120;2023-07-31T01:46:32;99861.20;;;16.90
66372;BMP180;53168;51.146;17.120;2023-07-31T01:49:06;99854.60;;;16.90
66372;BMP180;53168;51.146;17.120;2023-07-31T01:51:40;99855.80;;;16.90
66372;BMP180;53168;51.146;17.120;2023-07-31T01:54:14;99853.20;;;16.80
66372;BMP180;53168;51.146;17.120;2023-07-31T01:56:47;99850.20;;;16.80
66372;BMP180;53168;51.146;17.120;2023-07-31T01:59:21;99852.00;;;16.80
66372;BMP180;53168;51.146;17.120;2023-07-31T02:01:55;99853.60;;;16.80
66372;BMP180;53168;51.146;17.120;2023-07-31T02:04:28;99852.60;;;16.76
66372;BMP180;53168;51.146;17.120;2023-07-31T02:07:02;99851.40;;;16.70
66372;BMP180;53168;51.146;17.120;2023-07-31T02:09:36;99852.20;;;16.70
66372;BMP180;53168;51.146;17.120;2023-07-31T02:12:12;99854.60;;;16.70
66372;BMP180;53168;51.146;17.120;2023-07-31T02:14:46;99859.00;;;16.70
66372;BMP180;53168;51.146;17.120;2023-07-31T02:17:20;99863.60;;;16.70
66372;BMP180;53168;51.146;17.120;2023-07-31T02:19:54;99858.20;;;16.70
66372;BMP180;53168;51.146;17.120;2023-07-31T02:22:27;99858.40;;;16.80
66372;BMP180;53168;51.146;17.120;2023-07-31T02:25:01;99861.80;;;16.80
66372;BMP180;53168;51.146;17.120;2023-07-31T02:27:34;99861.60;;;16.74
66372;BMP180;53168;51.146;17.120;2023-07-31T02:30:11;99856.40;;;16.70
66372;BMP180;53168;51.146;17.120;2023-07-31T02:32:45;99857.00;;;16.70
66372;BMP180;53168;51.146;17.120;2023-07-31T02:35:18;99855.00;;;16.70
66372;BMP180;53168;51.146;17.120;2023-07-31T02:37:52;99856.00;;;16.70
66372;BMP180;53168;51.146;17.120;2023-07-31T02:40:25;99852.00;;;16.70
66372;BMP180;53168;51.146;17.120;2023-07-31T02:42:59;99850.20;;;16.70
66372;BMP180;53168;51.146;17.120;2023-07-31T02:45:33;99848.00;;;16.70
66372;BMP180;53168;51.146;17.120;2023-07-31T02:48:07;99846.80;;;16.70
66372;BMP180;53168;51.146;17.120;2023-07-31T02:50:41;99843.80;;;16.70
66372;BMP180;53168;51.146;17.120;2023-07-31T02:53:14;99840.40;;;16.64
66372;BMP180;53168;51.146;17.120;2023-07-31T02:55:48;99843.00;;;16.60
66372;BMP180;53168;51.146;17.120;2023-07-31T02:58:22;99849.20;;;16.60
66372;BMP180;53168;51.146;17.120;2023-07-31T03:00:55;99842.60;;;16.60
66372;BMP180;53168;51.146;17.120;2023-07-31T03:03:31;99847.60;;;16.50
66372;BMP180;53168;51.146;17.120;2023-07-31T03:06:05;99850.20;;;16.42
66372;BMP180;53168;51.146;17.120;2023-07-31T03:08:39;99856.00;;;16.40
66372;BMP180;53168;51.146;17.120;2023-07-31T03:11:13;99854.20;;;16.30
66372;BMP180;53168;51.146;17.120;2023-07-31T03:13:46;99855.40;;;16.30
66372;BMP180;53168;51.146;17.120;2023-07-31T03:16:21;99856.60;;;16.30
66372;BMP180;53168;51.146;17.120;2023-07-31T03:18:55;99857.80;;;16.22
66372;BMP180;53168;51.146;17.120;2023-07-31T03:21:29;99860.40;;;16.20
66372;BMP180;53168;51.146;17.120;2023-07-31T03:24:03;99860.40;;;16.14
66372;BMP180;53168;51.146;17.120;2023-07-31T03:26:37;99859.00;;;16.10
66372;BMP180;53168;51.146;17.120;2023-07-31T03:29:13;99858.00;;;16.10
66372;BMP180;53168;51.146;17.120;2023-07-31T03:31:47;99857.00;;;16.10
66372;BMP180;53168;51.146;17.120;2023-07-31T03:34:21;99859.40;;;16.10
66372;BMP180;53168;51.146;17.120;2023-07-31T03:36:55;99859.80;;;16.10
66372;BMP180;53168;51.146;17.120;2023-07-31T03:39:29;99859.60;;;16.10
66372;BMP180;53168;51.146;17.120;2023-07-31T03:42:03;99862.80;;;16.10
66372;BMP180;53168;51.146;17.120;2023-07-31T03:44:39;99865.00;;;16.10
66372;BMP180;53168;51.146;17.120;2023-07-31T03:47:14;99862.60;;;16.10
66372;BMP180;53168;51.146;17.120;2023-07-31T03:49:47;99862.40;;;16.10
66372;BMP180;53168;51.146;17.120;2023-07-31T03:52:21;99854.80;;;16.20
66372;BMP180;53168;51.146;17.120;2023-07-31T03:54:55;99858.80;;;16.20
66372;BMP180;53168;51.146;17.120;2023-07-31T03:57:29;99860.00;;;16.20
66372;BMP180;53168;51.146;17.120;2023-07-31T04:00:07;99856.20;;;16.20
66372;BMP180;53168;51.146;17.120;2023-07-31T04:02:46;99856.20;;;16.20
66372;BMP180;53168;51.146;17.120;2023-07-31T04:05:20;99854.80;;;16.20
66372;BMP180;53168;51.146;17.120;2023-07-31T04:07:54;99853.40;;;16.20
66372;BMP180;53168;51.146;17.120;2023-07-31T04:10:28;99855.20;;;16.30
66372;BMP180;53168;51.146;17.120;2023-07-31T04:13:03;99848.40;;;16.30
66372;BMP180;53168;51.146;17.120;2023-07-31T04:15:37;99847.20;;;16.30
66372;BMP180;53168;51.146;17.120;2023-07-31T04:18:10;99844.20;;;16.30
66372;BMP180;53168;51.146;17.120;2023-07-31T04:20:45;99853.20;;;16.40
66372;BMP180;53168;51.146;17.120;2023-07-31T04:23:19;99851.60;;;16.40
66372;BMP180;53168;51.146;17.120;2023-07-31T04:25:55;99852.20;;;16.48
66372;BMP180;53168;51.146;17.120;2023-07-31T04:28:29;99846.60;;;16.50
66372;BMP180;53168;51.146;17.120;2023-07-31T04:31:04;99846.60;;;16.50
66372;BMP180;53168;51.146;17.120;2023-07-31T04:33:38;99846.80;;;16.60
66372;BMP180;53168;51.146;17.120;2023-07-31T04:36:12;99849.00;;;16.70
66372;BMP180;53168;51.146;17.120;2023-07-31T04:38:46;99844.00;;;16.80
66372;BMP180;53168;51.146;17.120;2023-07-31T04:41:20;99845.00;;;16.90
66372;BMP180;53168;51.146;17.120;2023-07-31T04:43:53;99849.00;;;17.00
66372;BMP180;53168;51.146;17.120;2023-07-31T04:46:27;99852.40;;;17.18
66372;BMP180;53168;51.146;17.120;2023-07-31T04:49:01;99852.00;;;17.34
66372;BMP180;53168;51.146;17.120;2023-07-31T04:51:35;99850.40;;;17.50
66372;BMP180;53168;51.146;17.120;2023-07-31T04:54:09;99849.40;;;17.60
66372;BMP180;53168;51.146;17.120;2023-07-31T04:56:45;99849.00;;;17.70
66372;BMP180;53168;51.146;17.120;2023-07-31T04:59:20;99842.40;;;17.88
66372;BMP180;53168;51.146;17.120;2023-07-31T05:01:54;99842.60;;;18.00
66372;BMP180;53168;51.146;17.120;2023-07-31T05:04:29;99842.20;;;18.10
66372;BMP180;53168;51.146;17.120;2023-07-31T05:07:03;99843.40;;;18.20
66372;BMP180;53168;51.146;17.120;2023-07-31T05:09:39;99850.20;;;18.30
66372;BMP180;53168;51.146;17.120;2023-07-31T05:12:13;99850.60;;;18.40
66372;BMP180;53168;51.146;17.120;2023-07-31T05:14:47;99852.60;;;18.50
66372;BMP180;53168;51.146;17.120;2023-07-31T05:17:21;99850.00;;;18.52
66372;BMP180;53168;51.146;17.120;2023-07-31T05:19:54;99848.20;;;18.60
66372;BMP180;53168;51.146;17.120;2023-07-31T05:22:28;99853.40;;;18.68
66372;BMP180;53168;51.146;17.120;2023-07-31T05:25:01;99849.40;;;18.78
66372;BMP180;53168;51.146;17.120;2023-07-31T05:27:35;99855.20;;;18.90
66372;BMP180;53168;51.146;17.120;2023-07-31T05:30:10;99853.40;;;19.00
66372;BMP180;53168;51.146;17.120;2023-07-31T05:32:44;99853.00;;;19.10
66372;BMP180;53168;51.146;17.120;2023-07-31T05:35:18;99852.80;;;19.10
66372;BMP180;53168;51.146;17.120;2023-07-31T05:37:52;99853.20;;;19.20
66372;BMP180;53168;51.146;17.120;2023-07-31T05:40:25;99852.00;;;19.30
66372;BMP180;53168;51.146;17.120;2023-07-31T05:42:59;99862.00;;;19.40
66372;BMP180;53168;51.146;17.120;2023-07-31T05:45:33;99857.40;;;19.40
66372;BMP180;53168;51.146;17.120;2023-07-31T05:48:07;99852.40;;;19.50
66372;BMP180;53168;51.146;17.120;2023-07-31T05:50:41;99851.00;;;19.60
66372;BMP180;53168;51.146;17.120;2023-07-31T05:53:15;99849.20;;;19.70
66372;BMP180;53168;51.146;17.120;2023-07-31T05:55:49;99847.80;;;19.70
66372;BMP180;53168;51.146;17.120;2023-07-31T05:58:23;99850.80;;;19.80
66372;BMP180;53168;51.146;17.120;2023-07-31T06:00:58;99849.20;;;19.98
66372;BMP180;53168;51.146;17.120;2023-07-31T06:03:33;99851.20;;;20.10
66372;BMP180;53168;51.146;17.120;2023-07-31T06:06:07;99850.00;;;20.20
66372;BMP180;53168;51.146;17.120;2023-07-31T06:08:41;99851.00;;;20.30
66372;BMP180;53168;51.146;17.120;2023-07-31T06:11:16;99849.20;;;20.40
66372;BMP180;53168;51.146;17.120;2023-07-31T06:13:53;99851.40;;;20.40
66372;BMP180;53168;51.146;17.120;2023-07-31T06:16:29;99849.60;;;20.48
66372;BMP180;53168;51.146;17.120;2023-07-31T06:19:04;99851.40;;;20.50
66372;BMP180;53168;51.146;17.120;2023-07-31T06:21:43;99850.60;;;20.50
66372;BMP180;53168;51.146;17.120;2023-07-31T06:24:19;99847.00;;;20.50
66372;BMP180;53168;51.146;17.120;2023-07-31T06:26:56;99849.20;;;20.50
66372;BMP180;53168;51.146;17.120;2023-07-31T06:29:32;99848.00;;;20.50
66372;BMP180;53168;51.146;17.120;2023-07-31T06:32:08;99849.60;;;20.60
66372;BMP180;53168;51.146;17.120;2023-07-31T07:24:43;99832.20;;;22.06
66372;BMP180;53168;51.146;17.120;2023-07-31T07:27:18;99830.80;;;22.14
66372;BMP180;53168;51.146;17.120;2023-07-31T07:29:55;99826.60;;;22.10
66372;BMP180;53168;51.146;17.120;2023-07-31T07:32:29;99834.20;;;22.00
66372;BMP180;53168;51.146;17.120;2023-07-31T07:35:04;99835.60;;;21.90
66372;BMP180;53168;51.146;17.120;2023-07-31T07:37:40;99832.40;;;21.90
66372;BMP180;53168;51.146;17.120;2023-07-31T07:40:14;99824.00;;;21.86
66372;BMP180;53168;51.146;17.120;2023-07-31T07:42:54;99823.80;;;21.80
66372;BMP180;53168;51.146;17.120;2023-07-31T07:45:35;99823.60;;;21.80
66372;BMP180;53168;51.146;17.120;2023-07-31T07:48:09;99821.40;;;21.90
66372;BMP180;53168;51.146;17.120;2023-07-31T07:50:44;99823.00;;;21.90
66372;BMP180;53168;51.146;17.120;2023-07-31T08:00:24;99824.20;;;22.66
66372;BMP180;53168;51.146;17.120;2023-07-31T08:02:58;99826.60;;;22.80
66372;BMP180;53168;51.146;17.120;2023-07-31T08:05:32;99823.00;;;23.10
66372;BMP180;53168;51.146;17.120;2023-07-31T08:08:13;99822.40;;;23.30
66372;BMP180;53168;51.146;17.120;2023-07-31T08:10:48;99811.00;;;23.50
66372;BMP180;53168;51.146;17.120;2023-07-31T08:13:26;99818.00;;;23.50
66372;BMP180;53168;51.146;17.120;2023-07-31T08:16:00;99820.60;;;23.50
66372;BMP180;53168;51.146;17.120;2023-07-31T08:18:35;99808.20;;;23.40
66372;BMP180;53168;51.146;17.120;2023-07-31T08:24:11;99810.80;;;23.40
66372;BMP180;53168;51.146;17.120;2023-07-31T08:27:02;99811.60;;;23.50
66372;BMP180;53168;51.146;17.120;2023-07-31T08:29:36;99808.00;;;23.80
66372;BMP180;53168;51.146;17.120;2023-07-31T08:32:20;99822.40;;;24.00
66372;BMP180;53168;51.146;17.120;2023-07-31T08:34:54;99810.40;;;24.18
66372;BMP180;53168;51.146;17.120;2023-07-31T08:37:28;99815.20;;;24.44
66372;BMP180;53168;51.146;17.120;2023-07-31T08:40:03;99811.80;;;24.70
66372;BMP180;53168;51.146;17.120;2023-07-31T08:42:48;99806.00;;;25.00
66372;BMP180;53168;51.146;17.120;2023-07-31T08:45:22;99818.00;;;25.10
66372;BMP180;53168;51.146;17.120;2023-07-31T08:48:00;99812.20;;;25.20
66372;BMP180;53168;51.146;17.120;2023-07-31T08:50:34;99815.40;;;25.10
66372;BMP180;53168;51.146;17.120;2023-07-31T08:53:09;99813.00;;;25.00
66372;BMP180;53168;51.146;17.120;2023-07-31T08:55:43;99813.20;;;24.80
66372;BMP180;53168;51.146;17.120;2023-07-31T08:58:30;99809.00;;;24.56
66372;BMP180;53168;51.146;17.120;2023-07-31T09:01:30;99801.80;;;24.32
66372;BMP180;53168;51.146;17.120;2023-07-31T09:07:43;99814.40;;;23.90
66372;BMP180;53168;51.146;17.120;2023-07-31T09:13:25;99824.20;;;23.36
66372;BMP180;53168;51.146;17.120;2023-07-31T09:16:17;99821.00;;;23.00
66372;BMP180;53168;51.146;17.120;2023-07-31T09:19:09;99814.40;;;22.82
66372;BMP180;53168;51.146;17.120;2023-07-31T09:22:13;99804.60;;;22.86
66372;BMP180;53168;51.146;17.120;2023-07-31T09:24:50;99808.40;;;23.00
66372;BMP180;53168;51.146;17.120;2023-07-31T09:27:52;99808.40;;;23.00
66372;BMP180;53168;51.146;17.120;2023-07-31T09:30:28;99820.20;;;22.90
66372;BMP180;53168;51.146;17.120;2023-07-31T09:33:21;99826.40;;;22.70
66372;BMP180;53168;51.146;17.120;2023-07-31T09:35:55;99827.80;;;22.50
66372;BMP180;53168;51.146;17.120;2023-07-31T09:38:31;99835.80;;;22.30
66372;BMP180;53168;51.146;17.120;2023-07-31T09:41:19;99843.60;;;22.20
66372;BMP180;53168;51.146;17.120;2023-07-31T09:43:58;99839.40;;;22.20
66372;BMP180;53168;51.146;17.120;2023-07-31T09:46:33;99836.00;;;22.20
66372;BMP180;53168;51.146;17.120;2023-07-31T09:49:13;99842.40;;;22.10
66372;BMP180;53168;51.146;17.120;2023-07-31T09:51:48;99841.80;;;22.00
66372;BMP180;53168;51.146;17.120;2023-07-31T09:54:31;99843.00;;;21.80
66372;BMP180;53168;51.146;17.120;2023-07-31T09:57:09;99843.00;;;21.80
66372;BMP180;53168;51.146;17.120;2023-07-31T09:59:57;99844.40;;;21.80
66372;BMP180;53168;51.146;17.120;2023-07-31T10:03:33;99836.80;;;21.80
66372;BMP180;53168;51.146;17.120;2023-07-31T10:06:30;99829.00;;;22.04
66372;BMP180;53168;51.146;17.120;2023-07-31T10:09:22;99822.00;;;22.40
66372;BMP180;53168;51.146;17.120;2023-07-31T10:12:17;99827.40;;;22.50
66372;BMP180;53168;51.146;17.120;2023-07-31T10:19:47;99814.20;;;22.30
66372;BMP180;53168;51.146;17.120;2023-07-31T10:22:28;99811.00;;;22.10
66372;BMP180;53168;51.146;17.120;2023-07-31T10:28:33;99805.00;;;22.08
66372;BMP180;53168;51.146;17.120;2023-07-31T10:31:12;99812.40;;;22.42
66372;BMP180;53168;51.146;17.120;2023-07-31T10:33:56;99820.40;;;22.60
66372;BMP180;53168;51.146;17.120;2023-07-31T10:36:31;99814.20;;;22.60
66372;BMP180;53168;51.146;17.120;2023-07-31T10:39:37;99808.80;;;22.70
66372;BMP180;53168;51.146;17.120;2023-07-31T10:42:17;99803.20;;;23.10
66372;BMP180;53168;51.146;17.120;2023-07-31T10:44:57;99798.20;;;23.56
66372;BMP180;53168;51.146;17.120;2023-07-31T11:56:45;99732.20;;;26.58
66372;BMP180;53168;51.146;17.120;2023-07-31T11:59:19;99723.20;;;26.10
66372;BMP180;53168;51.146;17.120;2023-07-31T12:01:50;99720.20;;;26.00
66372;BMP180;53168;51.146;17.120;2023-07-31T12:04:48;99710.20;;;26.18
66372;BMP180;53168;51.146;17.120;2023-07-31T12:07:18;99693.20;;;26.50
66372;BMP180;53168;51.146;17.120;2023-07-31T12:09:54;99702.20;;;27.08
66372;BMP180;53168;51.146;17.120;2023-07-31T12:12:27;99676.00;;;27.72
66372;BMP180;53168;51.146;17.120;2023-07-31T12:15:02;99664.40;;;28.74
66372;BMP180;53168;51.146;17.120;2023-07-31T12:17:32;99687.20;;;29.22
66372;BMP180;53168;51.146;17.120;2023-07-31T12:20:09;99700.80;;;28.84
66372;BMP180;53168;51.146;17.120;2023-07-31T12:22:43;99691.40;;;28.20
66372;BMP180;53168;51.146;17.120;2023-07-31T12:25:17;99693.40;;;28.10
66372;BMP180;53168;51.146;17.120;2023-07-31T12:27:54;99694.80;;;27.46
66372;BMP180;53168;51.146;17.120;2023-07-31T12:30:34;99688.80;;;27.40
66372;BMP180;53168;51.146;17.120;2023-07-31T12:33:16;99690.60;;;27.00
66372;BMP180;53168;51.146;17.120;2023-07-31T12:35:54;99689.20;;;26.90
66372;BMP180;53168;51.146;17.120;2023-07-31T12:38:25;99681.00;;;26.72
66372;BMP180;53168;51.146;17.120;2023-07-31T12:40:57;99673.80;;;26.50
66372;BMP180;53168;51.146;17.120;2023-07-31T12:43:43;99666.60;;;27.10
66372;BMP180;53168;51.146;17.120;2023-07-31T12:46:16;99657.80;;;27.40
66372;BMP180;53168;51.146;17.120;2023-07-31T12:48:46;99659.80;;;27.60
66372;BMP180;53168;51.146;17.120;2023-07-31T12:51:21;99664.40;;;27.60
66372;BMP180;53168;51.146;17.120;2023-07-31T12:53:58;99665.80;;;27.50
66372;BMP180;53168;51.146;17.120;2023-07-31T12:56:33;99660.80;;;27.68
66372;BMP180;53168;51.146;17.120;2023-07-31T13:40:53;99603.20;;;29.48
66372;BMP180;53168;51.146;17.120;2023-07-31T13:43:27;99610.00;;;29.60
66372;BMP180;53168;51.146;17.120;2023-07-31T13:46:01;99594.80;;;29.92
66372;BMP180;53168;51.146;17.120;2023-07-31T13:48:40;99595.80;;;30.30
66372;BMP180;53168;51.146;17.120;2023-07-31T13:51:14;99601.20;;;30.60
66372;BMP180;53168;51.146;17.120;2023-07-31T13:53:49;99606.80;;;30.30
66372;BMP180;53168;51.146;17.120;2023-07-31T13:56:23;99624.40;;;29.82
66372;BMP180;53168;51.146;17.120;2023-07-31T13:58:57;99623.80;;;28.94
66372;BMP180;53168;51.146;17.120;2023-07-31T14:01:31;99621.20;;;28.28
66372;BMP180;53168;51.146;17.120;2023-07-31T14:04:05;99606.20;;;27.90
66372;BMP180;53168;51.146;17.120;2023-07-31T14:06:39;99607.40;;;28.58
66372;BMP180;53168;51.146;17.120;2023-07-31T14:09:13;99614.00;;;28.70
66372;BMP180;53168;51.146;17.120;2023-07-31T14:11:49;99608.20;;;28.88
66372;BMP180;53168;51.146;17.120;2023-07-31T14:14:22;99617.20;;;28.90
66372;BMP180;53168;51.146;17.120;2023-07-31T14:16:56;99617.40;;;28.68
66372;BMP180;53168;51.146;17.120;2023-07-31T14:19:31;99614.40;;;28.18
66372;BMP180;53168;51.146;17.120;2023-07-31T14:22:06;99612.80;;;27.90
66372;BMP180;53168;51.146;17.120;2023-07-31T14:24:43;99612.40;;;27.72
66372;BMP180;53168;51.146;17.120;2023-07-31T14:27:16;99614.40;;;27.50
66372;BMP180;53168;51.146;17.120;2023-07-31T14:29:52;99604.80;;;27.76
66372;BMP180;53168;51.146;17.120;2023-07-31T14:32:28;99605.20;;;28.02
66372;BMP180;53168;51.146;17.120;2023-07-31T14:35:03;99612.20;;;27.90
66372;BMP180;53168;51.146;17.120;2023-07-31T14:37:42;99617.80;;;27.48
66372;BMP180;53168;51.146;17.120;2023-07-31T14:40:17;99614.20;;;27.00
66372;BMP180;53168;51.146;17.120;2023-07-31T14:42:51;99612.80;;;26.80
66372;BMP180;53168;51.146;17.120;2023-07-31T14:45:25;99608.00;;;26.60
66372;BMP180;53168;51.146;17.120;2023-07-31T14:47:59;99608.20;;;26.50
66372;BMP180;53168;51.146;17.120;2023-07-31T14:50:34;99608.80;;;26.30
66372;BMP180;53168;51.146;17.120;2023-07-31T14:53:08;99610.20;;;26.00
66372;BMP180;53168;51.146;17.120;2023-07-31T14:55:42;99606.80;;;25.70
66372;BMP180;53168;51.146;17.120;2023-07-31T14:58:16;99604.80;;;25.58
66372;BMP180;53168;51.146;17.120;2023-07-31T15:00:50;99602.80;;;25.42
66372;BMP180;53168;51.146;17.120;2023-07-31T15:03:24;99605.20;;;25.20
66372;BMP180;53168;51.146;17.120;2023-07-31T15:05:59;99604.60;;;25.10
66372;BMP180;53168;51.146;17.120;2023-07-31T15:08:32;99596.80;;;25.10
66372;BMP180;53168;51.146;17.120;2023-07-31T15:11:06;99570.60;;;25.68
66372;BMP180;53168;51.146;17.120;2023-07-31T15:13:41;99554.00;;;26.74
66372;BMP180;53168;51.146;17.120;2023-07-31T15:16:15;99556.00;;;27.58
66372;BMP180;53168;51.146;17.120;2023-07-31T15:18:48;99568.80;;;28.30
66372;BMP180;53168;51.146;17.120;2023-07-31T15:21:22;99566.60;;;28.58
66372;BMP180;53168;51.146;17.120;2023-07-31T15:23:57;99545.60;;;29.10
66372;BMP180;53168;51.146;17.120;2023-07-31T15:26:48;99590.80;;;29.80
66372;BMP180;53168;51.146;17.120;2023-07-31T15:30:22;99588.60;;;28.82
66372;BMP180;53168;51.146;17.120;2023-07-31T15:33:14;99589.40;;;27.96
66372;BMP180;53168;51.146;17.120;2023-07-31T15:35:52;99585.00;;;27.56
66372;BMP180;53168;51.146;17.120;2023-07-31T15:38:29;99576.60;;;27.30
66372;BMP180;53168;51.146;17.120;2023-07-31T15:41:03;99576.20;;;27.10
66372;BMP180;53168;51.146;17.120;2023-07-31T15:43:39;99567.80;;;26.84
66372;BMP180;53168;51.146;17.120;2023-07-31T15:46:18;99568.00;;;26.60
66372;BMP180;53168;51.146;17.120;2023-07-31T15:48:53;99564.20;;;26.50
66372;BMP180;53168;51.146;17.120;2023-07-31T15:51:28;99557.00;;;26.54
66372;BMP180;53168;51.146;17.120;2023-07-31T15:54:05;99561.40;;;26.36
66372;BMP180;53168;51.146;17.120;2023-07-31T15:56:55;99549.60;;;26.06
66372;BMP180;53168;51.146;17.120;2023-07-31T15:59:31;99550.20;;;25.90
66372;BMP180;53168;51.146;17.120;2023-07-31T16:02:29;99548.00;;;26.30
66372;BMP180;53168;51.146;17.120;2023-07-31T16:05:19;99546.00;;;26.50
66372;BMP180;53168;51.146;17.120;2023-07-31T16:08:15;99504.80;;;27.46
66372;BMP180;53168;51.146;17.120;2023-07-31T16:11:00;99478.60;;;28.80
66372;BMP180;53168;51.146;17.120;2023-07-31T16:13:37;99467.00;;;29.84
66372;BMP180;53168;51.146;17.120;2023-07-31T16:16:56;99476.00;;;30.30
66372;BMP180;53168;51.146;17.120;2023-07-31T16:19:32;99544.80;;;30.54
66372;BMP180;53168;51.146;17.120;2023-07-31T16:22:08;99541.20;;;29.54
66372;BMP180;53168;51.146;17.120;2023-07-31T16:24:58;99548.00;;;28.56
66372;BMP180;53168;51.146;17.120;2023-07-31T16:28:12;99549.20;;;27.54
66372;BMP180;53168;51.146;17.120;2023-07-31T16:31:01;99542.00;;;27.00
66372;BMP180;53168;51.146;17.120;2023-07-31T16:33:53;99549.20;;;26.60
66372;BMP180;53168;51.146;17.120;2023-07-31T16:36:28;99553.60;;;26.20
66372;BMP180;53168;51.146;17.120;2023-07-31T16:39:29;99546.00;;;25.82
66372;BMP180;53168;51.146;17.120;2023-07-31T16:42:38;99542.20;;;25.40
66372;BMP180;53168;51.146;17.120;2023-07-31T16:45:48;99542.20;;;25.20
66372;BMP180;53168;51.146;17.120;2023-07-31T16:48:59;99543.40;;;25.10
66372;BMP180;53168;51.146;17.120;2023-07-31T16:51:52;99537.80;;;24.86
66372;BMP180;53168;51.146;17.120;2023-07-31T16:54:48;99537.40;;;24.60
66372;BMP180;53168;51.146;17.120;2023-07-31T16:57:23;99536.60;;;24.40
66372;BMP180;53168;51.146;17.120;2023-07-31T17:00:06;99536.20;;;24.20
66372;BMP180;53168;51.146;17.120;2023-07-31T17:02:47;99538.20;;;24.00
66372;BMP180;53168;51.146;17.120;2023-07-31T17:05:28;99539.20;;;23.90
66372;BMP180;53168;51.146;17.120;2023-07-31T17:08:15;99535.40;;;23.80
66372;BMP180;53168;51.146;17.120;2023-07-31T17:10:58;99530.00;;;23.70
66372;BMP180;53168;51.146;17.120;2023-07-31T17:13:51;99529.60;;;23.60
66372;BMP180;53168;51.146;17.120;2023-07-31T17:16:26;99529.80;;;23.60
66372;BMP180;53168;51.146;17.120;2023-07-31T17:19:01;99528.60;;;23.50
66372;BMP180;53168;51.146;17.120;2023-07-31T17:21:36;99532.20;;;23.40
66372;BMP180;53168;51.146;17.120;2023-07-31T17:24:13;99535.00;;;23.32
66372;BMP180;53168;51.146;17.120;2023-07-31T17:26:48;99535.40;;;23.30
66372;BMP180;53168;51.146;17.120;2023-07-31T17:29:33;99533.40;;;23.30
66372;BMP180;53168;51.146;17.120;2023-07-31T17:32:17;99531.80;;;23.30
66372;BMP180;53168;51.146;17.120;2023-07-31T17:34:59;99528.00;;;23.30
66372;BMP180;53168;51.146;17.120;2023-07-31T17:37:41;99529.20;;;23.20
66372;BMP180;53168;51.146;17.120;2023-07-31T17:40:17;99525.00;;;23.10
66372;BMP180;53168;51.146;17.120;2023-07-31T17:42:52;99523.40;;;23.00
66372;BMP180;53168;51.146;17.120;2023-07-31T17:45:27;99524.00;;;23.00
66372;BMP180;53168;51.146;17.120;2023-07-31T17:48:01;99529.20;;;22.90
66372;BMP180;53168;51.146;17.120;2023-07-31T17:50:50;99528.40;;;22.80
66372;BMP180;53168;51.146;17.120;2023-07-31T17:53:25;99524.20;;;22.80
66372;BMP180;53168;51.146;17.120;2023-07-31T17:56:00;99520.80;;;22.70
66372;BMP180;53168;51.146;17.120;2023-07-31T17:58:34;99517.60;;;22.60
66372;BMP180;53168;51.146;17.120;2023-07-31T18:01:14;99524.00;;;22.60
66372;BMP180;53168;51.146;17.120;2023-07-31T18:03:48;99525.20;;;22.60
66372;BMP180;53168;51.146;17.120;2023-07-31T18:06:24;99538.20;;;22.60
66372;BMP180;53168;51.146;17.120;2023-07-31T18:09:03;99540.80;;;22.60
66372;BMP180;53168;51.146;17.120;2023-07-31T18:11:37;99540.00;;;22.50
66372;BMP180;53168;51.146;17.120;2023-07-31T18:14:11;99540.60;;;22.50
66372;BMP180;53168;51.146;17.120;2023-07-31T18:16:46;99543.20;;;22.40
66372;BMP180;53168;51.146;17.120;2023-07-31T18:19:20;99546.20;;;22.40
66372;BMP180;53168;51.146;17.120;2023-07-31T18:21:54;99546.80;;;22.40
66372;BMP180;53168;51.146;17.120;2023-07-31T18:24:28;99543.00;;;22.30
66372;BMP180;53168;51.146;17.120;2023-07-31T18:27:04;99540.80;;;22.30
66372;BMP180;53168;51.146;17.120;2023-07-31T18:29:38;99543.00;;;22.30